createdAt,value
2018-03-11T00:01:25.809Z,5.23
2018-03-11T00:03:53.189Z,5.00
2018-03-11T00:06:20.621Z,5.50
2018-03-11T00:08:48.006Z,5.40
2018-03-11T00:11:15.394Z,5.33
2018-03-11T00:13:42.781Z,5.33
2018-03-11T00:16:10.161Z,5.30
2018-03-11T00:18:37.552Z,5.20
2018-03-11T00:21:05.072Z,5.40
2018-03-11T00:23:32.484Z,4.80
2018-03-11T00:25:59.917Z,4.80
2018-03-11T00:28:27.342Z,4.73
2018-03-11T00:30:54.762Z,5.17
2018-03-11T00:33:22.149Z,5.00
2018-03-11T00:35:49.656Z,4.60
2018-03-11T00:38:17.077Z,4.77
2018-03-11T00:40:44.458Z,4.40
2018-03-11T00:43:11.890Z,4.60
2018-03-11T00:45:39.318Z,4.83
2018-03-11T00:48:06.755Z,5.00
2018-03-11T00:50:34.151Z,4.40
2018-03-11T00:53:01.605Z,4.57
2018-03-11T00:55:29.108Z,4.90
2018-03-11T00:57:56.497Z,4.60
2018-03-11T01:00:23.923Z,4.40
2018-03-11T01:02:51.349Z,4.50
2018-03-11T01:05:18.728Z,4.63
2018-03-11T01:07:46.185Z,4.23
2018-03-11T01:10:13.589Z,4.37
2018-03-11T01:12:40.973Z,4.70
2018-03-11T01:15:08.376Z,4.47
2018-03-11T01:17:35.788Z,4.67
2018-03-11T01:20:03.213Z,4.87
2018-03-11T01:22:30.594Z,4.20
2018-03-11T01:24:58.013Z,4.47
2018-03-11T01:27:25.518Z,4.70
2018-03-11T01:29:52.920Z,4.20
2018-03-11T01:32:20.442Z,4.10
2018-03-11T01:34:47.829Z,4.00
2018-03-11T01:37:15.213Z,4.27
2018-03-11T01:39:42.641Z,3.90
2018-03-11T01:42:10.032Z,3.97
2018-03-11T01:44:37.452Z,4.30
2018-03-11T01:47:04.833Z,4.20
2018-03-11T01:49:32.313Z,4.00
2018-03-11T01:51:59.763Z,3.90
2018-03-11T01:54:27.144Z,4.10
2018-03-11T01:56:54.575Z,3.80
2018-03-11T01:59:21.973Z,4.50
2018-03-11T02:01:49.397Z,3.80
2018-03-11T02:04:16.781Z,4.20
2018-03-11T02:06:44.220Z,4.10
2018-03-11T02:09:11.631Z,4.00
2018-03-11T02:11:39.016Z,4.13
2018-03-11T02:14:06.398Z,4.00
2018-03-11T02:16:34.768Z,4.20
2018-03-11T02:19:02.261Z,3.63
2018-03-11T02:21:29.682Z,3.50
2018-03-11T02:23:57.062Z,3.87
2018-03-11T02:26:24.456Z,3.70
2018-03-11T02:28:51.840Z,3.83
2018-03-11T02:31:19.278Z,3.60
2018-03-11T02:33:46.689Z,3.60
2018-03-11T02:36:14.133Z,3.63
2018-03-11T02:38:41.531Z,4.30
2018-03-11T02:41:08.968Z,3.77
2018-03-11T02:43:36.397Z,3.77
2018-03-11T02:46:03.784Z,3.60
2018-03-11T02:48:37.304Z,3.67
2018-03-11T02:51:04.745Z,3.77
2018-03-11T02:53:32.128Z,3.50
2018-03-11T02:55:59.569Z,3.60
2018-03-11T02:58:26.953Z,3.20
2018-03-11T03:00:54.517Z,3.27
2018-03-11T03:03:21.941Z,3.37
2018-03-11T03:05:49.362Z,3.57
2018-03-11T03:08:16.788Z,3.60
2018-03-11T03:10:44.168Z,3.50
2018-03-11T03:13:11.601Z,3.80
2018-03-11T03:15:38.993Z,3.57
2018-03-11T03:18:06.458Z,3.70
2018-03-11T03:20:33.840Z,3.20
2018-03-11T03:23:01.298Z,3.33
2018-03-11T03:25:28.677Z,3.13
2018-03-11T03:27:56.059Z,3.40
2018-03-11T03:30:23.477Z,3.60
2018-03-11T03:32:50.888Z,3.33
2018-03-11T03:35:18.313Z,3.60
2018-03-11T03:37:45.705Z,3.50
2018-03-11T03:40:13.125Z,3.40
2018-03-11T03:42:40.543Z,3.27
2018-03-11T03:45:07.925Z,3.33
2018-03-11T03:47:35.375Z,3.30
2018-03-11T03:50:02.770Z,3.43
2018-03-11T03:52:30.174Z,3.30
2018-03-11T03:54:57.609Z,3.30
2018-03-11T03:57:25.001Z,3.50
2018-03-11T03:59:52.377Z,3.30
2018-03-11T04:02:19.825Z,3.70
2018-03-11T04:04:47.216Z,3.10
2018-03-11T04:07:14.656Z,3.30
2018-03-11T04:09:42.037Z,3.30
2018-03-11T04:12:09.448Z,3.30
2018-03-11T04:14:36.828Z,3.70
2018-03-11T04:17:04.254Z,3.13
2018-03-11T04:19:31.732Z,3.53
2018-03-11T04:21:59.109Z,3.60
2018-03-11T04:24:26.508Z,3.60
2018-03-11T04:26:53.929Z,3.40
2018-03-11T04:29:21.346Z,3.50
2018-03-11T04:31:48.784Z,3.10
2018-03-11T04:34:16.189Z,3.20
2018-03-11T04:36:43.569Z,3.30
2018-03-11T04:39:10.989Z,3.40
2018-03-11T04:41:38.406Z,3.20
2018-03-11T04:44:05.858Z,3.50
2018-03-11T04:46:33.290Z,3.13
2018-03-11T04:49:00.722Z,3.50
2018-03-11T04:51:28.161Z,3.60
2018-03-11T04:53:55.544Z,3.43
2018-03-11T04:56:23.020Z,3.50
2018-03-11T04:58:50.434Z,3.53
2018-03-11T05:01:17.869Z,3.27
2018-03-11T05:03:45.281Z,3.23
2018-03-11T05:06:12.662Z,3.03
2018-03-11T05:08:40.100Z,3.23
2018-03-11T05:11:07.535Z,3.47
2018-03-11T05:13:34.989Z,3.30
2018-03-11T05:16:02.380Z,3.20
2018-03-11T05:18:29.762Z,3.50
2018-03-11T05:20:57.150Z,3.43
2018-03-11T05:23:24.551Z,3.57
2018-03-11T05:25:51.937Z,3.37
2018-03-11T05:28:19.348Z,3.50
2018-03-11T05:30:46.754Z,3.50
2018-03-11T05:33:14.134Z,3.30
2018-03-11T05:35:41.512Z,3.30
2018-03-11T05:38:08.917Z,3.53
2018-03-11T05:40:36.349Z,3.40
2018-03-11T05:43:03.732Z,3.27
2018-03-11T05:45:31.193Z,3.70
2018-03-11T05:47:59.600Z,3.43
2018-03-11T05:50:27.008Z,3.30
2018-03-11T05:52:54.384Z,4.00
2018-03-11T05:55:21.783Z,3.60
2018-03-11T05:57:49.177Z,3.27
2018-03-11T06:00:16.562Z,3.40
2018-03-11T06:02:43.987Z,3.47
2018-03-11T06:05:11.373Z,3.60
2018-03-11T06:07:38.753Z,3.80
2018-03-11T06:10:06.145Z,3.50
2018-03-11T06:12:33.522Z,3.80
2018-03-11T06:15:00.902Z,3.63
2018-03-11T06:17:28.325Z,3.67
2018-03-11T06:19:55.762Z,3.90
2018-03-11T06:22:23.170Z,3.70
2018-03-11T06:24:50.546Z,3.87
2018-03-11T06:27:17.937Z,3.50
2018-03-11T06:29:45.274Z,3.90
2018-03-11T06:32:12.613Z,3.90
2018-03-11T06:34:39.944Z,4.27
2018-03-11T06:37:07.278Z,4.00
2018-03-11T06:39:34.618Z,3.67
2018-03-11T06:42:02.028Z,3.70
2018-03-11T06:44:29.371Z,4.03
2018-03-11T06:46:56.707Z,4.10
2018-03-11T06:49:24.046Z,3.90
2018-03-11T06:51:51.381Z,4.43
2018-03-11T06:54:18.720Z,4.17
2018-03-11T06:56:46.053Z,3.87
2018-03-11T06:59:13.391Z,4.03
2018-03-11T07:01:40.734Z,4.20
2018-03-11T07:04:08.073Z,4.50
2018-03-11T07:06:35.417Z,4.40
2018-03-11T07:09:02.768Z,4.00
2018-03-11T07:11:30.118Z,4.03
2018-03-11T07:13:57.462Z,3.70
2018-03-11T07:16:24.835Z,4.10
2018-03-11T07:18:52.199Z,4.60
2018-03-11T07:21:19.535Z,3.97
2018-03-11T07:23:46.868Z,4.33
2018-03-11T07:26:14.260Z,4.67
2018-03-11T07:28:41.602Z,4.10
2018-03-11T07:31:09.007Z,4.30
2018-03-11T07:33:36.367Z,4.60
2018-03-11T07:36:03.728Z,4.60
2018-03-11T07:38:31.100Z,4.77
2018-03-11T07:40:58.456Z,4.47
2018-03-11T07:43:25.834Z,4.63
2018-03-11T07:45:53.255Z,4.80
2018-03-11T07:48:20.590Z,4.60
2018-03-11T07:50:47.930Z,4.53
2018-03-11T07:53:15.307Z,4.47
2018-03-11T07:55:42.682Z,4.67
2018-03-11T07:58:10.015Z,4.60
2018-03-11T08:00:37.365Z,4.47
2018-03-11T08:03:04.734Z,4.63
2018-03-11T08:05:32.078Z,4.63
2018-03-11T08:07:59.417Z,5.17
2018-03-11T08:10:26.766Z,5.07
2018-03-11T08:12:54.148Z,5.00
2018-03-11T08:15:21.551Z,5.00
2018-03-11T08:17:49.009Z,4.80
2018-03-11T08:20:16.425Z,4.80
2018-03-11T08:22:43.721Z,4.67
2018-03-11T08:25:11.104Z,4.63
2018-03-11T08:27:38.494Z,5.10
2018-03-11T08:30:06.026Z,4.83
2018-03-11T08:32:33.487Z,4.80
2018-03-11T08:35:01.058Z,5.33
2018-03-11T08:37:28.427Z,4.73
2018-03-11T08:39:55.840Z,4.73
2018-03-11T08:42:23.201Z,4.80
2018-03-11T08:44:50.634Z,5.07
2018-03-11T08:47:17.991Z,5.03
2018-03-11T08:49:45.342Z,5.03
2018-03-11T08:52:12.724Z,5.13
2018-03-11T08:54:40.112Z,5.20
2018-03-11T08:57:08.020Z,4.77
2018-03-11T08:59:35.358Z,5.20
2018-03-11T09:02:02.815Z,4.63
2018-03-11T09:04:30.171Z,4.80
2018-03-11T09:06:57.515Z,5.10
2018-03-11T09:09:25.078Z,4.97
2018-03-11T09:11:52.458Z,5.07
2018-03-11T09:14:19.880Z,5.00
2018-03-11T09:16:47.295Z,4.70
2018-03-11T09:19:14.651Z,4.93
2018-03-11T09:21:42.000Z,5.13
2018-03-11T09:24:09.355Z,4.80
2018-03-11T09:26:36.699Z,5.13
2018-03-11T09:29:04.037Z,5.50
2018-03-11T09:31:31.482Z,4.83
2018-03-11T09:33:58.842Z,5.17
2018-03-11T09:36:26.243Z,4.90
2018-03-11T09:38:53.586Z,5.03
2018-03-11T09:41:21.158Z,4.90
2018-03-11T09:43:48.516Z,4.80
2018-03-11T09:46:15.867Z,4.60
2018-03-11T09:48:43.348Z,5.07
2018-03-11T09:51:10.686Z,4.93
2018-03-11T09:53:38.026Z,4.70
2018-03-11T09:56:05.523Z,5.00
2018-03-11T09:58:32.966Z,4.90
2018-03-11T10:01:00.328Z,5.00
2018-03-11T10:03:27.790Z,4.37
2018-03-11T10:05:55.179Z,4.80
2018-03-11T10:08:22.591Z,4.63
2018-03-11T10:10:49.984Z,4.57
2018-03-11T10:13:17.435Z,4.70
2018-03-11T10:15:44.825Z,5.07
2018-03-11T10:18:12.172Z,4.50
2018-03-11T10:20:39.566Z,4.83
2018-03-11T10:23:06.908Z,4.47
2018-03-11T10:25:34.251Z,4.53
2018-03-11T10:28:01.661Z,4.77
2018-03-11T10:30:29.148Z,4.83
2018-03-11T10:32:56.494Z,4.73
2018-03-11T10:35:23.875Z,4.40
2018-03-11T10:37:51.218Z,4.93
2018-03-11T10:40:18.595Z,4.77
2018-03-11T10:42:45.952Z,4.40
2018-03-11T10:45:13.295Z,4.63
2018-03-11T10:47:40.678Z,4.43
2018-03-11T10:50:08.034Z,4.50
2018-03-11T10:52:35.426Z,4.60
2018-03-11T10:55:02.810Z,4.70
2018-03-11T10:57:30.239Z,4.40
2018-03-11T10:59:57.640Z,4.40
2018-03-11T11:02:25.071Z,4.67
2018-03-11T11:04:52.478Z,4.30
2018-03-11T11:07:19.827Z,4.40
2018-03-11T11:09:47.284Z,4.50
2018-03-11T11:12:14.703Z,4.30
2018-03-11T11:14:42.063Z,4.63
2018-03-11T11:17:09.425Z,4.33
2018-03-11T11:19:36.806Z,4.17
2018-03-11T11:22:04.246Z,4.70
2018-03-11T11:24:31.729Z,4.13
2018-03-11T11:26:59.184Z,4.30
2018-03-11T11:29:26.650Z,4.40
2018-03-11T11:31:54.053Z,4.10
2018-03-11T11:34:21.419Z,4.27
2018-03-11T11:36:48.770Z,4.53
2018-03-11T11:39:16.131Z,4.17
2018-03-11T11:41:43.529Z,4.30
2018-03-11T11:44:10.923Z,4.30
2018-03-11T11:46:38.283Z,4.30
2018-03-11T11:49:05.767Z,4.17
2018-03-11T11:51:33.207Z,3.97
2018-03-11T11:54:00.634Z,4.13
2018-03-11T11:56:28.146Z,3.90
2018-03-11T11:58:55.523Z,4.17
2018-03-11T12:01:22.884Z,4.50
2018-03-11T12:03:50.275Z,4.10
2018-03-11T12:06:17.666Z,4.20
2018-03-11T12:08:45.018Z,4.23
2018-03-11T12:11:12.417Z,4.13
2018-03-11T12:13:39.765Z,4.10
2018-03-11T12:16:07.168Z,4.13
2018-03-11T12:18:34.540Z,4.23
2018-03-11T12:21:01.899Z,4.53
2018-03-11T12:23:29.375Z,4.30
2018-03-11T12:25:56.725Z,4.37
2018-03-11T12:28:24.106Z,3.83
2018-03-11T12:30:51.617Z,4.40
2018-03-11T12:33:19.015Z,4.37
2018-03-11T12:35:46.419Z,4.17
2018-03-11T12:38:13.810Z,4.33
2018-03-11T12:40:41.185Z,4.20
2018-03-11T12:43:08.565Z,4.23
2018-03-11T12:45:35.974Z,3.90
2018-03-11T12:48:03.344Z,3.87
2018-03-11T12:50:30.694Z,4.37
2018-03-11T12:52:58.168Z,4.30
2018-03-11T12:55:25.544Z,3.73
2018-03-11T12:57:52.925Z,4.13
2018-03-11T13:00:20.275Z,4.37
2018-03-11T13:02:47.658Z,4.10
2018-03-11T13:05:15.002Z,4.00
2018-03-11T13:07:42.394Z,4.13
2018-03-11T13:10:09.739Z,3.80
2018-03-11T13:12:37.107Z,4.10
2018-03-11T13:15:04.483Z,4.23
2018-03-11T13:17:31.825Z,4.00
2018-03-11T13:19:59.200Z,4.37
2018-03-11T13:22:26.539Z,4.07
2018-03-11T13:24:53.886Z,4.00
2018-03-11T13:27:21.254Z,4.00
2018-03-11T13:29:48.620Z,4.17
2018-03-11T13:32:16.124Z,4.03
2018-03-11T13:34:43.476Z,4.17
2018-03-11T13:37:10.810Z,4.20
2018-03-11T13:39:38.171Z,3.70
2018-03-11T13:42:05.514Z,4.20
2018-03-11T13:44:32.854Z,3.90
2018-03-11T13:47:00.233Z,4.00
2018-03-11T13:49:27.612Z,3.83
2018-03-11T13:51:55.034Z,3.77
2018-03-11T13:54:22.368Z,3.80
2018-03-11T13:56:49.755Z,3.90
2018-03-11T13:59:17.094Z,4.30
2018-03-11T14:01:44.431Z,3.70
2018-03-11T14:04:11.779Z,3.87
2018-03-11T14:06:39.128Z,3.83
2018-03-11T14:09:06.475Z,3.40
2018-03-11T14:11:33.814Z,3.80
2018-03-11T14:14:01.199Z,3.80
2018-03-11T14:16:28.569Z,3.90
2018-03-11T14:18:55.911Z,4.20
2018-03-11T14:21:23.253Z,3.80
2018-03-11T14:23:50.603Z,4.23
2018-03-11T14:26:17.959Z,4.30
2018-03-11T14:28:45.298Z,3.77
2018-03-11T14:31:12.663Z,3.90
2018-03-11T14:33:40.024Z,4.20
2018-03-11T14:36:07.365Z,4.13
2018-03-11T14:38:34.715Z,3.70
2018-03-11T14:41:02.091Z,3.77
2018-03-11T14:43:29.438Z,4.17
2018-03-11T14:45:56.825Z,3.90
2018-03-11T14:48:24.159Z,3.90
2018-03-11T14:50:51.526Z,3.87
2018-03-11T14:53:18.924Z,4.10
2018-03-11T14:55:46.254Z,4.07
2018-03-11T14:58:13.598Z,3.80
2018-03-11T15:00:41.004Z,4.37
2018-03-11T15:03:08.344Z,3.90
2018-03-11T15:05:35.723Z,4.20
2018-03-11T15:08:03.067Z,4.10
2018-03-11T15:10:30.478Z,3.73
2018-03-11T15:12:57.832Z,4.17
2018-03-11T15:15:25.195Z,3.93
2018-03-11T15:17:52.598Z,4.00
2018-03-11T15:20:19.939Z,3.77
2018-03-11T15:22:47.283Z,4.37
2018-03-11T15:25:14.619Z,4.00
2018-03-11T15:27:41.961Z,4.10
2018-03-11T15:30:09.303Z,4.03
2018-03-11T15:32:36.664Z,3.80
2018-03-11T15:35:04.051Z,4.03
2018-03-11T15:37:31.407Z,3.87
2018-03-11T15:39:58.767Z,3.70
2018-03-11T15:42:26.110Z,4.10
2018-03-11T15:44:53.464Z,3.70
2018-03-11T15:47:20.816Z,4.10
2018-03-11T15:49:48.155Z,3.80
2018-03-11T15:52:15.570Z,3.83
2018-03-11T15:54:42.917Z,3.90
2018-03-11T15:57:10.255Z,4.33
2018-03-11T15:59:37.636Z,4.00
2018-03-11T16:02:04.993Z,3.90
2018-03-11T16:04:32.340Z,3.80
2018-03-11T16:06:59.722Z,3.70
2018-03-11T16:09:27.122Z,4.07
2018-03-11T16:11:54.482Z,4.00
2018-03-11T16:14:21.867Z,3.90
2018-03-11T16:16:49.219Z,4.13
2018-03-11T16:19:16.557Z,4.00
2018-03-11T16:21:44.035Z,3.93
2018-03-11T16:24:11.372Z,3.60
2018-03-11T16:26:38.717Z,4.03
2018-03-11T16:29:06.061Z,3.93
2018-03-11T16:31:33.438Z,3.87
2018-03-11T16:34:00.846Z,4.10
2018-03-11T16:36:28.238Z,3.97
2018-03-11T16:38:55.650Z,4.10
2018-03-11T16:41:22.993Z,3.90
2018-03-11T16:43:50.331Z,3.83
2018-03-11T16:46:17.671Z,4.23
2018-03-11T16:48:45.015Z,4.07
2018-03-11T16:51:12.363Z,4.17
2018-03-11T16:53:39.761Z,3.77
2018-03-11T16:56:07.139Z,4.33
2018-03-11T16:58:34.487Z,3.90
2018-03-11T17:01:01.886Z,4.30
2018-03-11T17:03:29.246Z,4.10
2018-03-11T17:05:56.587Z,3.70
2018-03-11T17:08:23.960Z,4.23
2018-03-11T17:10:51.307Z,4.20
2018-03-11T17:13:18.674Z,4.27
2018-03-11T17:15:46.030Z,4.30
2018-03-11T17:18:13.414Z,4.57
2018-03-11T17:20:40.747Z,4.27
2018-03-11T17:23:08.123Z,4.50
2018-03-11T17:25:35.483Z,4.30
2018-03-11T17:28:02.829Z,4.70
2018-03-11T17:30:30.206Z,4.63
2018-03-11T17:32:57.602Z,4.97
2018-03-11T17:35:25.026Z,5.30
2018-03-11T17:37:52.368Z,4.70
2018-03-11T17:40:19.712Z,4.90
2018-03-11T17:42:47.090Z,4.60
2018-03-11T17:45:14.482Z,4.97
2018-03-11T17:47:41.814Z,4.90
2018-03-11T17:50:09.162Z,4.87
2018-03-11T17:52:36.586Z,4.90
2018-03-11T17:55:03.923Z,5.20
2018-03-11T17:57:31.381Z,5.13
2018-03-11T17:59:58.758Z,4.87
2018-03-11T18:02:26.136Z,4.80
2018-03-11T18:04:53.491Z,5.03
2018-03-11T18:07:20.865Z,5.17
2018-03-11T18:09:48.238Z,5.27
2018-03-11T18:12:15.585Z,4.50
2018-03-11T18:14:42.919Z,5.10
2018-03-11T18:17:10.271Z,5.37
2018-03-11T18:19:37.654Z,5.07
2018-03-11T18:22:05.003Z,4.90
2018-03-11T18:24:32.407Z,4.80
2018-03-11T18:26:59.750Z,5.37
2018-03-11T18:29:27.121Z,5.33
2018-03-11T18:31:54.492Z,5.03
2018-03-11T18:34:21.896Z,5.13
2018-03-11T18:36:49.246Z,5.33
2018-03-11T18:39:16.620Z,5.27
2018-03-11T18:41:43.950Z,4.80
2018-03-11T18:44:11.299Z,5.30
2018-03-11T18:46:38.642Z,5.17
2018-03-11T18:49:05.985Z,5.13
2018-03-11T18:51:33.354Z,4.93
2018-03-11T18:54:00.731Z,5.20
2018-03-11T18:56:28.110Z,5.10
2018-03-11T18:58:55.494Z,4.97
2018-03-11T19:01:22.866Z,5.20
2018-03-11T19:03:50.235Z,5.23
2018-03-11T19:06:17.649Z,5.10
2018-03-11T19:08:44.982Z,4.80
2018-03-11T19:11:12.314Z,5.00
2018-03-11T19:13:39.658Z,5.00
2018-03-11T19:16:06.998Z,5.70
2018-03-11T19:18:34.348Z,5.17
2018-03-11T19:21:01.775Z,5.33
2018-03-11T19:23:29.150Z,5.20
2018-03-11T19:25:56.562Z,4.93
2018-03-11T19:28:23.907Z,4.73
2018-03-11T19:30:51.304Z,5.33
2018-03-11T19:33:18.645Z,5.10
2018-03-11T19:35:46.026Z,5.03
2018-03-11T19:38:13.366Z,5.03
2018-03-11T19:40:40.709Z,5.43
2018-03-11T19:43:08.056Z,5.10
2018-03-11T19:45:35.492Z,5.33
2018-03-11T19:48:02.888Z,4.90
2018-03-11T19:50:30.231Z,5.37
2018-03-11T19:52:57.612Z,5.30
2018-03-11T19:55:24.991Z,5.07
2018-03-11T19:57:52.348Z,5.03
2018-03-11T20:00:19.735Z,4.83
2018-03-11T20:02:47.118Z,5.10
2018-03-11T20:05:14.463Z,4.87
2018-03-11T20:07:41.850Z,4.80
2018-03-11T20:10:09.195Z,4.60
2018-03-11T20:12:36.590Z,5.20
2018-03-11T20:15:03.932Z,5.30
2018-03-11T20:17:31.426Z,4.90
2018-03-11T20:19:58.804Z,4.80
2018-03-11T20:22:26.226Z,4.50
2018-03-11T20:24:53.569Z,4.83
2018-03-11T20:27:20.942Z,5.00
2018-03-11T20:29:48.289Z,4.63
2018-03-11T20:32:15.691Z,4.80
2018-03-11T20:34:43.066Z,4.47
2018-03-11T20:37:10.411Z,4.70
2018-03-11T20:39:37.792Z,4.37
2018-03-11T20:42:05.180Z,4.47
2018-03-11T20:44:32.580Z,4.77
2018-03-11T20:46:59.916Z,4.30
2018-03-11T20:49:27.255Z,4.50
2018-03-11T20:51:54.670Z,4.57
2018-03-11T20:54:22.043Z,4.30
2018-03-11T20:56:49.387Z,4.60
2018-03-11T20:59:16.763Z,4.50
2018-03-11T21:01:44.093Z,4.10
2018-03-11T21:04:11.471Z,4.23
2018-03-11T21:06:38.808Z,4.67
2018-03-11T21:09:06.191Z,4.90
2018-03-11T21:11:34.496Z,4.37
2018-03-11T21:14:01.862Z,4.17
2018-03-11T21:16:29.265Z,4.20
2018-03-11T21:18:56.642Z,4.50
2018-03-11T21:21:24.051Z,4.27
2018-03-11T21:23:51.472Z,4.50
2018-03-11T21:26:18.846Z,4.27
2018-03-11T21:28:46.224Z,4.40
2018-03-11T21:31:13.554Z,4.57
2018-03-11T21:33:40.936Z,4.60
2018-03-11T21:36:08.272Z,4.10
2018-03-11T21:38:35.668Z,4.20
2018-03-11T21:41:03.017Z,4.07
2018-03-11T21:43:30.375Z,4.40
2018-03-11T21:45:57.799Z,4.10
2018-03-11T21:48:25.138Z,4.20
2018-03-11T21:50:52.473Z,4.00
2018-03-11T21:53:19.870Z,3.83
2018-03-11T21:55:47.215Z,4.17
2018-03-11T21:58:14.595Z,4.20
2018-03-11T22:00:41.949Z,4.10
2018-03-11T22:03:09.286Z,4.10
2018-03-11T22:05:36.646Z,4.20
2018-03-11T22:08:03.994Z,3.97
2018-03-11T22:10:31.380Z,4.20
2018-03-11T22:12:58.718Z,4.43
2018-03-11T22:15:26.065Z,4.20
2018-03-11T22:17:53.422Z,4.30
2018-03-11T22:20:20.852Z,4.10
2018-03-11T22:22:48.160Z,4.20
2018-03-11T22:25:15.525Z,4.13
2018-03-11T22:27:42.863Z,4.23
2018-03-11T22:30:10.218Z,4.00
2018-03-11T22:32:37.596Z,4.27
2018-03-11T22:35:04.980Z,3.70
2018-03-11T22:37:32.324Z,3.93
2018-03-11T22:39:59.663Z,3.80
2018-03-11T22:42:27.033Z,4.43
2018-03-11T22:44:54.396Z,3.90
2018-03-11T22:47:21.752Z,4.03
2018-03-11T22:49:49.088Z,4.17
2018-03-11T22:52:16.468Z,3.73
2018-03-11T22:54:43.809Z,3.80
2018-03-11T22:57:11.141Z,3.97
2018-03-11T22:59:38.507Z,3.70
2018-03-11T23:02:05.846Z,3.90
2018-03-11T23:04:33.188Z,3.90
2018-03-11T23:07:00.578Z,3.80
2018-03-11T23:09:27.972Z,3.70
2018-03-11T23:11:55.330Z,3.73
2018-03-11T23:14:22.714Z,3.90
2018-03-11T23:16:50.055Z,4.03
2018-03-11T23:19:17.412Z,4.10
2018-03-11T23:21:44.752Z,3.57
2018-03-11T23:24:12.139Z,3.60
2018-03-11T23:26:39.490Z,3.90
2018-03-11T23:29:06.834Z,3.50
2018-03-11T23:31:34.178Z,3.67
2018-03-11T23:34:01.542Z,3.67
2018-03-11T23:36:28.882Z,3.83
2018-03-11T23:38:56.272Z,3.67
2018-03-11T23:41:23.610Z,3.90
2018-03-11T23:43:50.966Z,4.00
2018-03-11T23:46:18.302Z,3.60
2018-03-11T23:48:45.686Z,3.80
2018-03-11T23:51:13.022Z,3.60
2018-03-11T23:53:40.377Z,3.50
2018-03-11T23:56:07.723Z,4.10
2018-03-11T23:58:35.096Z,3.53
